createdAt,value
2022-10-17T00:01:44.266Z,97416.00
2022-10-17T00:04:11.486Z,97415.00
2022-10-17T00:06:39.407Z,97428.00
2022-10-17T00:09:06.548Z,97427.00
2022-10-17T00:11:33.683Z,97429.00
2022-10-17T00:14:00.827Z,97425.00
2022-10-17T00:16:33.803Z,97433.00
2022-10-17T00:19:01.052Z,97429.00
2022-10-17T00:21:28.377Z,97425.00
2022-10-17T00:23:55.841Z,97427.00
2022-10-17T00:26:23.369Z,97424.00
2022-10-17T00:28:51.742Z,97432.00
2022-10-17T00:31:20.299Z,97433.00
2022-10-17T00:33:47.967Z,97439.00
2022-10-17T00:36:20.493Z,97437.00
2022-10-17T00:38:50.481Z,97436.00
2022-10-17T00:41:19.569Z,97442.00
2022-10-17T00:43:59.159Z,97431.00
2022-10-17T00:46:31.858Z,97437.00
2022-10-17T00:49:11.074Z,97438.00
2022-10-17T00:51:43.404Z,97439.00
2022-10-17T00:54:11.229Z,97446.00
2022-10-17T00:56:40.331Z,97441.00
2022-10-17T00:59:09.813Z,97440.00
2022-10-17T01:01:37.143Z,97435.00
2022-10-17T01:04:04.388Z,97443.00
2022-10-17T01:06:31.516Z,97447.00
2022-10-17T01:08:58.705Z,97444.00
2022-10-17T01:12:03.729Z,97458.00
2022-10-17T01:14:56.778Z,97453.00
2022-10-17T01:17:51.765Z,97460.00
2022-10-17T01:20:52.614Z,97456.00
2022-10-17T01:23:40.805Z,97459.00
2022-10-17T01:26:25.839Z,97450.00
2022-10-17T01:29:22.524Z,97456.00
2022-10-17T01:31:52.519Z,97455.00
2022-10-17T01:34:39.824Z,97457.00
2022-10-17T01:38:00.819Z,97449.00
2022-10-17T01:41:15.683Z,97448.00
2022-10-17T01:47:36.738Z,97445.00
2022-10-17T01:50:35.493Z,97443.00
2022-10-17T01:53:13.691Z,97447.00
2022-10-17T01:55:43.055Z,97443.00
2022-10-17T01:58:21.415Z,97441.00
2022-10-17T02:00:49.405Z,97433.00
2022-10-17T02:03:18.989Z,97437.00
2022-10-17T02:05:46.462Z,97434.00
2022-10-17T02:08:13.949Z,97435.00
2022-10-17T02:11:01.864Z,97443.00
2022-10-17T02:14:03.274Z,97438.00
2022-10-17T02:16:33.176Z,97431.00
2022-10-17T02:19:26.115Z,97432.00
2022-10-17T02:22:20.877Z,97432.00
2022-10-17T02:24:53.561Z,97431.00
2022-10-17T02:27:52.909Z,97427.00
2022-10-17T02:30:44.384Z,97433.00
2022-10-17T02:33:17.125Z,97428.00
2022-10-17T02:35:47.657Z,97435.00
2022-10-17T02:38:15.184Z,97431.00
2022-10-17T02:40:52.920Z,97425.00
2022-10-17T02:43:34.915Z,97423.00
2022-10-17T02:46:03.644Z,97422.00
2022-10-17T02:48:45.415Z,97423.00
2022-10-17T02:51:31.671Z,97429.00
2022-10-17T02:54:15.508Z,97432.00
2022-10-17T02:57:02.363Z,97437.00
2022-10-17T03:02:06.381Z,97436.00
2022-10-17T03:04:43.810Z,97434.00
2022-10-17T03:07:11.649Z,97435.00
2022-10-17T03:09:38.807Z,97431.00
2022-10-17T03:12:06.194Z,97427.00
2022-10-17T03:14:33.336Z,97435.00
2022-10-17T03:17:00.630Z,97441.00
2022-10-17T03:19:27.767Z,97441.00
2022-10-17T03:21:55.005Z,97443.00
2022-10-17T03:24:22.130Z,97443.00
2022-10-17T03:26:49.301Z,97442.00
2022-10-17T03:29:16.474Z,97442.00
2022-10-17T03:31:43.662Z,97444.00
2022-10-17T03:34:10.804Z,97441.00
2022-10-17T03:36:37.947Z,97444.00
2022-10-17T03:39:05.112Z,97445.00
2022-10-17T03:41:32.283Z,97451.00
2022-10-17T03:43:59.418Z,97452.00
2022-10-17T03:46:26.563Z,97451.00
2022-10-17T03:48:54.064Z,97454.00
2022-10-17T03:51:21.224Z,97454.00
2022-10-17T03:53:48.417Z,97458.00
2022-10-17T03:56:21.033Z,97459.00
2022-10-17T03:58:48.475Z,97466.00
2022-10-17T04:01:17.146Z,97464.00
2022-10-17T04:03:44.429Z,97460.00
2022-10-17T04:06:12.567Z,97463.00
2022-10-17T04:08:39.825Z,97463.00
2022-10-17T04:11:08.907Z,97462.00
2022-10-17T04:13:36.610Z,97465.00
2022-10-17T04:16:06.538Z,97470.00
2022-10-17T04:18:34.155Z,97465.00
2022-10-17T04:21:06.123Z,97468.00
2022-10-17T04:23:33.763Z,97474.00
2022-10-17T04:26:01.750Z,97475.00
2022-10-17T04:28:29.501Z,97475.00
2022-10-17T04:31:01.134Z,97475.00
2022-10-17T04:33:28.517Z,97469.00
2022-10-17T04:36:16.046Z,97476.00
2022-10-17T04:38:43.257Z,97468.00
2022-10-17T04:41:16.378Z,97481.00
2022-10-17T04:43:46.964Z,97483.00
2022-10-17T04:46:17.428Z,97475.00
2022-10-17T04:48:44.750Z,97482.00
2022-10-17T04:51:14.815Z,97483.00
2022-10-17T04:53:42.863Z,97471.00
2022-10-17T04:56:18.676Z,97481.00
2022-10-17T04:58:46.470Z,97477.00
2022-10-17T05:01:19.597Z,97477.00
2022-10-17T05:03:47.495Z,97483.00
2022-10-17T05:06:18.001Z,97489.00
2022-10-17T05:08:45.560Z,97490.00
2022-10-17T05:11:24.300Z,97488.00
2022-10-17T05:13:56.989Z,97495.00
2022-10-17T05:16:24.847Z,97501.00
2022-10-17T05:18:53.884Z,97488.00
2022-10-17T05:21:21.964Z,97486.00
2022-10-17T05:23:49.355Z,97486.00
2022-10-17T05:26:16.638Z,97496.00
2022-10-17T05:28:43.882Z,97493.00
2022-10-17T05:31:11.755Z,97497.00
2022-10-17T05:33:39.675Z,97494.00
2022-10-17T05:36:07.818Z,97497.00
2022-10-17T05:38:35.226Z,97504.00
2022-10-17T05:41:03.757Z,97512.00
2022-10-17T05:43:31.858Z,97502.00
2022-10-17T05:45:59.058Z,97509.00
2022-10-17T05:48:26.187Z,97515.00
2022-10-17T05:51:02.567Z,97526.00
2022-10-17T05:53:34.012Z,97533.00
2022-10-17T05:56:02.763Z,97525.00
2022-10-17T05:58:49.138Z,97532.00
2022-10-17T06:01:17.754Z,97535.00
2022-10-17T06:03:44.934Z,97534.00
2022-10-17T06:06:13.409Z,97533.00
2022-10-17T06:08:40.693Z,97539.00
2022-10-17T06:11:10.218Z,97538.00
2022-10-17T06:13:38.553Z,97533.00
2022-10-17T06:16:06.501Z,97547.00
2022-10-17T06:18:33.665Z,97542.00
2022-10-17T06:21:05.764Z,97556.00
2022-10-17T06:23:33.402Z,97563.00
2022-10-17T06:26:01.732Z,97558.00
2022-10-17T06:28:29.036Z,97559.00
2022-10-17T06:30:56.266Z,97560.00
2022-10-17T06:33:23.611Z,97558.00
2022-10-17T06:35:54.647Z,97571.00
2022-10-17T06:38:21.929Z,97579.00
2022-10-17T06:40:49.149Z,97588.00
2022-10-17T06:43:16.274Z,97578.00
2022-10-17T06:45:43.517Z,97586.00
2022-10-17T06:48:10.687Z,97599.00
2022-10-17T06:50:37.851Z,97598.00
2022-10-17T06:53:05.245Z,97604.00
2022-10-17T06:55:33.242Z,97607.00
2022-10-17T06:58:00.358Z,97604.00
2022-10-17T07:00:27.505Z,97601.00
2022-10-17T07:02:54.638Z,97602.00
2022-10-17T07:05:21.770Z,97597.00
2022-10-17T07:07:51.096Z,97602.00
2022-10-17T07:10:19.166Z,97601.00
2022-10-17T07:12:46.466Z,97598.00
2022-10-17T07:15:13.622Z,97598.00
2022-10-17T07:17:40.745Z,97606.00
2022-10-17T07:20:08.757Z,97613.00
2022-10-17T07:22:35.892Z,97610.00
2022-10-17T07:25:03.146Z,97613.00
2022-10-17T07:27:30.683Z,97612.00
2022-10-17T07:29:57.973Z,97613.00
2022-10-17T07:32:25.236Z,97615.00
2022-10-17T07:34:52.358Z,97617.00
2022-10-17T07:37:19.466Z,97628.00
2022-10-17T07:39:46.615Z,97618.00
2022-10-17T07:42:14.515Z,97621.00
2022-10-17T07:44:41.948Z,97632.00
2022-10-17T07:47:09.241Z,97628.00
2022-10-17T07:49:42.281Z,97631.00
2022-10-17T07:52:16.519Z,97632.00
2022-10-17T07:54:43.767Z,97627.00
2022-10-17T07:57:10.904Z,97631.00
2022-10-17T07:59:38.667Z,97638.00
2022-10-17T08:02:07.951Z,97638.00
2022-10-17T08:04:36.367Z,97639.00
2022-10-17T08:07:19.629Z,97636.00
2022-10-17T08:09:49.198Z,97653.00
2022-10-17T08:12:16.506Z,97637.00
2022-10-17T08:14:44.265Z,97636.00
2022-10-17T08:17:11.430Z,97652.00
2022-10-17T08:19:40.301Z,97650.00
2022-10-17T08:22:08.118Z,97650.00
2022-10-17T08:24:35.399Z,97650.00
2022-10-17T08:27:03.858Z,97654.00
2022-10-17T08:29:32.816Z,97651.00
2022-10-17T08:32:01.152Z,97653.00
2022-10-17T08:34:29.571Z,97661.00
2022-10-17T08:36:56.753Z,97662.00
2022-10-17T08:39:23.924Z,97673.00
2022-10-17T08:42:22.454Z,97670.00
2022-10-17T08:45:14.587Z,97672.00
2022-10-17T08:47:44.981Z,97676.00
2022-10-17T08:50:40.975Z,97662.00
2022-10-17T08:53:26.280Z,97671.00
2022-10-17T08:55:54.515Z,97670.00
2022-10-17T08:58:25.973Z,97669.00
2022-10-17T09:01:13.642Z,97667.00
2022-10-17T09:04:02.347Z,97668.00
2022-10-17T09:06:39.414Z,97665.00
2022-10-17T09:09:37.358Z,97667.00
2022-10-17T09:12:55.246Z,97677.00
2022-10-17T09:15:43.235Z,97679.00
2022-10-17T09:18:21.144Z,97683.00
2022-10-17T09:20:54.200Z,97686.00
2022-10-17T09:23:31.990Z,97687.00
2022-10-17T09:26:00.759Z,97689.00
2022-10-17T09:28:36.438Z,97698.00
2022-10-17T09:31:21.149Z,97690.00
2022-10-17T09:33:54.425Z,97700.00
2022-10-17T09:36:35.274Z,97702.00
2022-10-17T09:39:15.136Z,97705.00
2022-10-17T09:41:50.051Z,97705.00
2022-10-17T09:44:31.680Z,97705.00
2022-10-17T09:47:17.709Z,97716.00
2022-10-17T09:49:47.111Z,97716.00
2022-10-17T09:52:25.565Z,97719.00
2022-10-17T09:55:06.057Z,97721.00
2022-10-17T09:57:59.073Z,97727.00
2022-10-17T10:00:38.521Z,97721.00
2022-10-17T10:03:10.540Z,97731.00
2022-10-17T10:05:37.700Z,97719.00
2022-10-17T10:08:16.063Z,97721.00
2022-10-17T10:10:44.563Z,97722.00
2022-10-17T10:13:14.770Z,97725.00
2022-10-17T10:15:49.312Z,97734.00
2022-10-17T10:18:33.116Z,97738.00
2022-10-17T10:21:15.247Z,97736.00
2022-10-17T10:23:44.663Z,97744.00
2022-10-17T10:26:30.246Z,97745.00
2022-10-17T10:29:00.354Z,97746.00
2022-10-17T10:31:40.104Z,97751.00
2022-10-17T10:34:25.640Z,97755.00
2022-10-17T10:37:16.268Z,97752.00
2022-10-17T10:39:53.448Z,97768.00
2022-10-17T10:42:41.392Z,97758.00
2022-10-17T10:45:47.644Z,97755.00
2022-10-17T10:48:46.608Z,97757.00
2022-10-17T10:51:43.224Z,97771.00
2022-10-17T10:54:22.142Z,97766.00
2022-10-17T10:57:10.172Z,97761.00
2022-10-17T11:00:20.997Z,97769.00
2022-10-17T11:03:11.945Z,97762.00
2022-10-17T11:06:37.888Z,97769.00
2022-10-17T11:10:08.151Z,97775.00
2022-10-17T11:13:18.128Z,97772.00
2022-10-17T11:15:54.291Z,97770.00
2022-10-17T11:18:38.301Z,97777.00
2022-10-17T11:24:39.499Z,97783.00
2022-10-17T11:27:20.982Z,97780.00
2022-10-17T11:29:56.889Z,97780.00
2022-10-17T11:32:54.566Z,97785.00
2022-10-17T11:35:29.204Z,97782.00
2022-10-17T11:38:24.071Z,97781.00
2022-10-17T11:40:53.415Z,97774.00
2022-10-17T11:43:31.221Z,97780.00
2022-10-17T11:46:19.318Z,97788.00
2022-10-17T11:48:58.659Z,97780.00
2022-10-17T11:54:26.366Z,97785.00
2022-10-17T11:57:21.931Z,97770.00
2022-10-17T12:00:10.793Z,97776.00
2022-10-17T12:02:59.245Z,97779.00
2022-10-17T12:05:42.240Z,97779.00
2022-10-17T12:08:12.362Z,97774.00
2022-10-17T12:11:10.386Z,97771.00
2022-10-17T12:13:37.512Z,97768.00
2022-10-17T12:16:19.944Z,97766.00
2022-10-17T12:18:48.575Z,97756.00
2022-10-17T12:21:15.935Z,97766.00
2022-10-17T12:23:52.568Z,97759.00
2022-10-17T12:26:27.949Z,97768.00
2022-10-17T12:28:55.511Z,97765.00
2022-10-17T12:31:31.124Z,97769.00
2022-10-17T12:34:02.012Z,97762.00
2022-10-17T12:36:29.213Z,97760.00
2022-10-17T12:39:02.150Z,97759.00
2022-10-17T12:41:42.167Z,97749.00
2022-10-17T12:44:15.416Z,97750.00
2022-10-17T12:46:45.783Z,97755.00
2022-10-17T12:49:47.779Z,97747.00
2022-10-17T12:52:22.030Z,97743.00
2022-10-17T12:55:12.137Z,97749.00
2022-10-17T12:57:59.975Z,97741.00
2022-10-17T13:00:49.858Z,97739.00
2022-10-17T13:03:31.315Z,97731.00
2022-10-17T13:06:03.561Z,97740.00
2022-10-17T13:08:33.461Z,97733.00
2022-10-17T13:11:00.969Z,97742.00
2022-10-17T13:13:43.384Z,97746.00
2022-10-17T13:16:27.765Z,97736.00
2022-10-17T13:18:54.950Z,97742.00
2022-10-17T13:21:22.243Z,97739.00
2022-10-17T13:23:51.132Z,97743.00
2022-10-17T13:26:26.760Z,97728.00
2022-10-17T13:29:06.574Z,97737.00
2022-10-17T13:31:36.312Z,97734.00
2022-10-17T13:34:05.971Z,97738.00
2022-10-17T13:36:34.015Z,97734.00
2022-10-17T13:39:09.406Z,97734.00
2022-10-17T13:41:39.012Z,97730.00
2022-10-17T13:44:15.733Z,97737.00
2022-10-17T13:46:44.531Z,97732.00
2022-10-17T13:49:26.181Z,97738.00
2022-10-17T13:51:55.923Z,97723.00
2022-10-17T13:54:40.454Z,97726.00
2022-10-17T13:57:23.151Z,97738.00
2022-10-17T13:59:52.415Z,97738.00
2022-10-17T14:02:37.683Z,97732.00
2022-10-17T14:05:19.241Z,97739.00
2022-10-17T14:08:10.185Z,97738.00
2022-10-17T14:10:39.101Z,97739.00
2022-10-17T14:13:08.172Z,97742.00
2022-10-17T14:15:36.406Z,97744.00
2022-10-17T14:18:08.431Z,97740.00
2022-10-17T14:23:31.353Z,97735.00
2022-10-17T14:26:24.927Z,97725.00
2022-10-17T14:29:06.376Z,97733.00
2022-10-17T14:31:37.485Z,97731.00
2022-10-17T14:34:05.467Z,97732.00
2022-10-17T14:36:36.015Z,97732.00
2022-10-17T14:39:03.770Z,97734.00
2022-10-17T14:41:43.512Z,97727.00
2022-10-17T14:44:26.535Z,97741.00
2022-10-17T14:46:59.502Z,97741.00
2022-10-17T14:49:38.626Z,97743.00
2022-10-17T14:52:24.174Z,97741.00
2022-10-17T14:54:51.810Z,97744.00
2022-10-17T14:57:22.973Z,97741.00
2022-10-17T14:59:55.160Z,97736.00
2022-10-17T15:02:24.694Z,97745.00
2022-10-17T15:04:52.312Z,97741.00
2022-10-17T15:07:21.025Z,97741.00
2022-10-17T15:09:50.034Z,97744.00
2022-10-17T15:12:19.498Z,97741.00
2022-10-17T15:14:48.357Z,97740.00
2022-10-17T15:17:26.009Z,97737.00
2022-10-17T15:19:53.182Z,97736.00
2022-10-17T15:22:20.330Z,97752.00
2022-10-17T15:24:47.587Z,97754.00
2022-10-17T15:27:23.417Z,97747.00
2022-10-17T15:29:51.729Z,97737.00
2022-10-17T15:32:19.179Z,97743.00
2022-10-17T15:34:46.370Z,97747.00
2022-10-17T15:37:22.383Z,97750.00
2022-10-17T15:39:53.989Z,97742.00
2022-10-17T15:42:28.981Z,97751.00
2022-10-17T15:44:57.088Z,97743.00
2022-10-17T15:47:35.983Z,97747.00
2022-10-17T15:50:03.452Z,97744.00
2022-10-17T15:52:30.578Z,97750.00
2022-10-17T15:54:59.708Z,97749.00
2022-10-17T15:57:31.985Z,97746.00
2022-10-17T16:00:00.340Z,97759.00
2022-10-17T16:02:27.910Z,97762.00
2022-10-17T16:04:55.072Z,97758.00
2022-10-17T16:07:22.307Z,97769.00
2022-10-17T16:09:49.486Z,97775.00
2022-10-17T16:12:27.063Z,97782.00
2022-10-17T16:14:54.343Z,97777.00
2022-10-17T16:17:21.461Z,97777.00
2022-10-17T16:19:48.673Z,97777.00
2022-10-17T16:22:24.597Z,97782.00
2022-10-17T16:24:58.177Z,97780.00
2022-10-17T16:27:26.145Z,97784.00
2022-10-17T16:29:53.288Z,97787.00
2022-10-17T16:32:20.417Z,97782.00
2022-10-17T16:34:47.587Z,97787.00
2022-10-17T16:37:14.759Z,97797.00
2022-10-17T16:39:41.902Z,97790.00
2022-10-17T16:42:09.112Z,97793.00
2022-10-17T16:44:36.251Z,97797.00
2022-10-17T16:47:03.381Z,97796.00
2022-10-17T16:49:30.522Z,97802.00
2022-10-17T16:51:57.677Z,97798.00
2022-10-17T16:54:24.803Z,97798.00
2022-10-17T16:56:51.938Z,97805.00
2022-10-17T16:59:19.084Z,97807.00
2022-10-17T17:01:46.243Z,97803.00
2022-10-17T17:04:13.511Z,97810.00
2022-10-17T17:06:40.658Z,97810.00
2022-10-17T17:09:09.238Z,97813.00
2022-10-17T17:11:37.391Z,97823.00
2022-10-17T17:14:05.699Z,97829.00
2022-10-17T17:16:34.411Z,97828.00
2022-10-17T17:19:10.334Z,97832.00
2022-10-17T17:21:37.604Z,97838.00
2022-10-17T17:24:05.303Z,97843.00
2022-10-17T17:26:37.773Z,97845.00
2022-10-17T17:29:05.320Z,97847.00
2022-10-17T17:31:34.691Z,97846.00
2022-10-17T17:34:02.923Z,97854.00
2022-10-17T17:36:32.533Z,97860.00
2022-10-17T17:39:01.521Z,97857.00
2022-10-17T17:41:29.379Z,97859.00
2022-10-17T17:44:15.634Z,97862.00
2022-10-17T17:46:54.969Z,97859.00
2022-10-17T17:49:26.039Z,97863.00
2022-10-17T17:52:22.492Z,97858.00
2022-10-17T17:54:53.624Z,97859.00
2022-10-17T17:57:24.606Z,97858.00
2022-10-17T18:00:09.556Z,97869.00
2022-10-17T18:02:54.687Z,97864.00
2022-10-17T18:09:26.471Z,97870.00
2022-10-17T18:11:53.967Z,97873.00
2022-10-17T18:14:23.805Z,97870.00
2022-10-17T18:16:50.973Z,97874.00
2022-10-17T18:19:18.282Z,97881.00
2022-10-17T18:21:45.523Z,97875.00
2022-10-17T18:24:12.681Z,97872.00
2022-10-17T18:26:39.805Z,97881.00
2022-10-17T18:29:07.073Z,97880.00
2022-10-17T18:31:36.927Z,97885.00
2022-10-17T18:34:05.315Z,97881.00
2022-10-17T18:36:33.829Z,97885.00
2022-10-17T18:39:01.671Z,97881.00
2022-10-17T18:41:29.074Z,97881.00
2022-10-17T18:43:56.846Z,97880.00
2022-10-17T18:46:27.057Z,97880.00
2022-10-17T18:48:54.680Z,97882.00
2022-10-17T18:51:23.413Z,97875.00
2022-10-17T18:53:52.761Z,97868.00
2022-10-17T18:56:20.642Z,97874.00
2022-10-17T18:58:48.022Z,97878.00
2022-10-17T19:01:23.905Z,97877.00
2022-10-17T19:03:52.723Z,97889.00
2022-10-17T19:06:22.383Z,97875.00
2022-10-17T19:08:49.555Z,97880.00
2022-10-17T19:11:26.974Z,97878.00
2022-10-17T19:13:56.422Z,97880.00
2022-10-17T19:16:29.840Z,97877.00
2022-10-17T19:19:05.507Z,97882.00
2022-10-17T19:21:32.984Z,97872.00
2022-10-17T19:24:02.671Z,97868.00
2022-10-17T19:26:31.591Z,97875.00
2022-10-17T19:29:00.406Z,97871.00
2022-10-17T19:31:29.374Z,97877.00
2022-10-17T19:33:56.982Z,97873.00
2022-10-17T19:36:32.269Z,97883.00
2022-10-17T19:39:02.208Z,97878.00
2022-10-17T19:41:29.387Z,97876.00
2022-10-17T19:43:56.586Z,97885.00
2022-10-17T19:46:25.759Z,97880.00
2022-10-17T19:48:53.204Z,97883.00
2022-10-17T19:51:26.183Z,97878.00
2022-10-17T19:53:54.514Z,97880.00
2022-10-17T19:56:23.266Z,97882.00
2022-10-17T19:58:51.367Z,97878.00
2022-10-17T20:01:26.499Z,97880.00
2022-10-17T20:03:54.266Z,97870.00
2022-10-17T20:06:22.073Z,97870.00
2022-10-17T20:08:49.788Z,97877.00
2022-10-17T20:11:22.207Z,97878.00
2022-10-17T20:13:49.477Z,97879.00
2022-10-17T20:16:25.486Z,97880.00
2022-10-17T20:18:54.678Z,97868.00
2022-10-17T20:21:25.088Z,97884.00
2022-10-17T20:23:52.286Z,97879.00
2022-10-17T20:26:33.647Z,97892.00
2022-10-17T20:29:10.598Z,97887.00
2022-10-17T20:31:38.374Z,97890.00
2022-10-17T20:34:06.041Z,97900.00
2022-10-17T20:36:36.715Z,97893.00
2022-10-17T20:39:05.130Z,97892.00
2022-10-17T20:41:32.553Z,97898.00
2022-10-17T20:43:59.674Z,97897.00
2022-10-17T20:46:36.925Z,97915.00
2022-10-17T20:49:05.867Z,97907.00
2022-10-17T20:51:33.229Z,97908.00
2022-10-17T20:54:00.422Z,97914.00
2022-10-17T20:56:30.371Z,97913.00
2022-10-17T20:59:03.233Z,97914.00
2022-10-17T21:01:31.513Z,97918.00
2022-10-17T21:04:06.205Z,97912.00
2022-10-17T21:06:43.408Z,97912.00
2022-10-17T21:09:10.547Z,97907.00
2022-10-17T21:11:37.676Z,97917.00
2022-10-17T21:14:06.628Z,97913.00
2022-10-17T21:16:35.771Z,97913.00
2022-10-17T21:19:03.656Z,97902.00
2022-10-17T21:21:33.879Z,97908.00
2022-10-17T21:24:06.293Z,97911.00
2022-10-17T21:26:35.142Z,97912.00
2022-10-17T21:29:05.563Z,97918.00
2022-10-17T21:31:35.401Z,97907.00
2022-10-17T21:34:13.188Z,97919.00
2022-10-17T21:36:40.483Z,97911.00
2022-10-17T21:41:40.124Z,97910.00
2022-10-17T21:44:26.847Z,97913.00
2022-10-17T21:46:54.964Z,97912.00
2022-10-17T21:49:23.754Z,97912.00
2022-10-17T21:51:52.207Z,97905.00
2022-10-17T21:54:20.181Z,97908.00
2022-10-17T21:56:47.318Z,97905.00
2022-10-17T21:59:14.494Z,97897.00
2022-10-17T22:01:43.689Z,97891.00
2022-10-17T22:04:17.384Z,97902.00
2022-10-17T22:06:47.415Z,97902.00
2022-10-17T22:09:22.398Z,97897.00
2022-10-17T22:11:52.202Z,97895.00
2022-10-17T22:14:21.754Z,97901.00
2022-10-17T22:16:49.313Z,97891.00
2022-10-17T22:19:20.022Z,97896.00
2022-10-17T22:21:47.154Z,97894.00
2022-10-17T22:24:15.985Z,97887.00
2022-10-17T22:26:44.434Z,97881.00
2022-10-17T22:29:11.702Z,97881.00
2022-10-17T22:31:39.542Z,97878.00
2022-10-17T22:34:07.523Z,97876.00
2022-10-17T22:36:35.462Z,97870.00
2022-10-17T22:39:02.879Z,97875.00
2022-10-17T22:41:30.035Z,97874.00
2022-10-17T22:43:57.190Z,97874.00
2022-10-17T22:46:24.394Z,97866.00
2022-10-17T22:48:51.643Z,97869.00
2022-10-17T22:51:18.836Z,97872.00
2022-10-17T22:53:46.054Z,97852.00
2022-10-17T22:56:15.179Z,97859.00
2022-10-17T22:58:42.353Z,97859.00
2022-10-17T23:01:14.061Z,97860.00
2022-10-17T23:03:41.455Z,97853.00
2022-10-17T23:06:08.836Z,97855.00
2022-10-17T23:08:36.272Z,97857.00
2022-10-17T23:11:03.471Z,97856.00
2022-10-17T23:13:30.653Z,97852.00
2022-10-17T23:15:58.026Z,97853.00
2022-10-17T23:18:26.325Z,97852.00
2022-10-17T23:20:53.861Z,97843.00
2022-10-17T23:23:21.901Z,97843.00
2022-10-17T23:25:49.691Z,97844.00
2022-10-17T23:28:17.394Z,97830.00
2022-10-17T23:30:44.712Z,97843.00
2022-10-17T23:33:13.196Z,97838.00
2022-10-17T23:35:40.564Z,97839.00
2022-10-17T23:38:08.065Z,97839.00
2022-10-17T23:40:35.455Z,97835.00
2022-10-17T23:43:03.523Z,97836.00
2022-10-17T23:45:34.791Z,97825.00
2022-10-17T23:48:04.923Z,97825.00
2022-10-17T23:50:32.076Z,97824.00
2022-10-17T23:52:59.255Z,97828.00
2022-10-17T23:55:26.390Z,97829.00
2022-10-17T23:57:53.545Z,97833.00
